Time;durP1;ratioP1;P1;durP2;ratioP2;P2;SDS_P1;SDS_P2;PMS_P1;PMS_P2;Temp;Humidity;BMP_temperature;BMP_pressure;BME280_temperature;BME280_humidity;BME280_pressure;Samples;Min_cycle;Max_cycle;Signal;HPM_P1;HPM_P2
2021/11/25 00:01:17;;;;;;;10.88;5.90;;;4.70;99.90;;;5.07;98.08;100345.84;5041822;28;20029;-77
2021/11/25 00:03:43;;;;;;;9.70;6.00;;;4.70;99.90;;;5.06;98.18;100339.47;5054595;28;20025;-78
2021/11/25 00:06:08;;;;;;;12.00;6.85;;;4.70;99.90;;;5.02;99.04;100323.84;5053115;28;20032;-77
2021/11/25 00:08:34;;;;;;;11.52;6.63;;;4.70;99.90;;;4.99;99.00;100332.81;5054199;28;20032;-78
2021/11/25 00:11:06;;;;;;;13.02;6.00;;;4.70;99.90;;;4.91;99.37;100330.88;5053696;28;20125;-78
2021/11/25 00:13:35;;;;;;;11.05;7.20;;;4.60;99.90;;;4.91;99.53;100326.19;5044473;28;20120;-77
2021/11/25 00:16:14;;;;;;;11.57;6.78;;;4.60;99.90;;;4.90;100.00;100320.94;5033352;28;20171;-78
2021/11/25 00:18:40;;;;;;;10.82;6.82;;;4.60;99.90;;;4.90;100.00;100315.41;5034429;28;20088;-78
2021/11/25 00:21:09;;;;;;;13.40;6.60;;;4.60;99.90;;;4.87;100.00;100308.59;5033154;28;20112;-78
2021/11/25 00:23:41;;;;;;;13.60;7.45;;;4.60;99.90;;;4.81;100.00;100306.31;5033630;28;20534;-76
2021/11/25 00:26:09;;;;;;;12.57;6.80;;;4.50;99.90;;;4.76;100.00;100305.34;5016002;28;20057;-78
2021/11/25 00:28:41;;;;;;;9.82;6.55;;;4.50;99.90;;;4.76;100.00;100302.56;5033322;28;20026;-76
2021/11/25 00:31:13;;;;;;;15.20;7.78;;;4.50;99.90;;;4.67;100.00;100298.19;5049651;28;20044;-77
2021/11/25 00:33:42;;;;;;;13.05;7.03;;;4.40;99.90;;;4.70;100.00;100292.81;5055381;28;20054;-76
2021/11/25 00:36:08;;;;;;;11.02;7.28;;;4.40;99.90;;;4.71;100.00;100288.94;5054599;28;20037;-77
2021/11/25 00:38:34;;;;;;;10.75;6.93;;;4.40;99.90;;;4.72;100.00;100289.72;5055296;28;20029;-77
2021/11/25 00:41:00;;;;;;;12.10;6.50;;;4.40;99.90;;;4.73;100.00;100283.88;5054183;28;20054;-76
2021/11/25 00:43:26;;;;;;;11.73;6.95;;;4.40;99.90;;;4.69;100.00;100280.13;5052995;28;20112;-79
2021/11/25 00:45:55;;;;;;;11.70;7.70;;;4.40;99.90;;;4.65;100.00;100281.94;5036777;28;20040;-78
2021/11/25 00:48:21;;;;;;;11.23;6.90;;;4.40;99.90;;;4.63;100.00;100275.09;5019123;28;20429;-76
2021/11/25 00:50:48;;;;;;;9.18;6.70;;;4.30;99.90;;;4.68;100.00;100273.00;5033829;28;20033;-76
2021/11/25 00:53:19;;;;;;;10.52;6.45;;;4.30;99.90;;;4.66;100.00;100266.94;5034096;28;20102;-76
2021/11/25 00:55:45;;;;;;;11.77;6.70;;;4.30;99.90;;;4.64;100.00;100266.47;5016008;28;20060;-77
2021/11/25 00:58:15;;;;;;;12.07;6.53;;;4.30;99.90;;;4.65;100.00;100257.03;5016237;28;20128;-79
2021/11/25 01:00:41;;;;;;;12.18;6.80;;;4.30;99.90;;;4.61;100.00;100256.06;5017597;28;20393;-77
2021/11/25 01:03:11;;;;;;;11.35;6.75;;;4.30;99.90;;;4.61;100.00;100261.59;5033786;28;20030;-76
2021/11/25 01:05:37;;;;;;;11.88;6.93;;;4.30;99.90;;;4.60;100.00;100257.19;5033836;28;20033;-77
2021/11/25 01:08:05;;;;;;;14.80;7.88;;;4.30;99.90;;;4.57;100.00;100259.81;5016185;28;20033;-76
2021/11/25 01:10:32;;;;;;;13.55;7.70;;;4.30;99.90;;;4.55;100.00;100262.91;5017566;28;20025;-78
2021/11/25 01:13:01;;;;;;;11.65;6.40;;;4.20;99.90;;;4.59;100.00;100265.84;5015917;28;20200;-77
2021/11/25 01:15:34;;;;;;;11.13;7.15;;;4.20;99.90;;;4.57;100.00;100266.16;5033818;28;20489;-76
2021/11/25 01:18:08;;;;;;;11.13;7.18;;;4.30;99.90;;;4.59;100.00;100252.78;5016300;28;20029;-76
2021/11/25 01:20:44;;;;;;;11.43;6.55;;;4.20;99.90;;;4.61;100.00;100261.59;5033849;28;20025;-78
2021/11/25 01:23:22;;;;;;;11.45;7.35;;;4.20;99.90;;;4.58;100.00;100259.50;5053750;28;20491;-77
2021/11/25 01:25:52;;;;;;;12.52;6.80;;;4.20;99.90;;;4.55;100.00;100256.56;5035368;28;20029;-77
2021/11/25 01:28:21;;;;;;;13.10;6.55;;;4.20;99.90;;;4.56;100.00;100250.69;5035331;28;20055;-76
2021/11/25 01:30:54;;;;;;;11.82;6.95;;;4.20;99.90;;;4.55;100.00;100259.34;5035079;28;20025;-76
2021/11/25 01:33:29;;;;;;;12.68;6.68;;;4.20;99.90;;;4.50;100.00;100249.25;5034760;28;20119;-77
2021/11/25 01:35:59;;;;;;;8.65;5.68;;;4.20;99.90;;;4.53;100.00;100251.34;5052518;28;20032;-76
2021/11/25 01:38:32;;;;;;;15.45;7.05;;;4.20;99.90;;;4.60;100.00;100250.84;5052369;28;20048;-77
2021/11/25 01:40:59;;;;;;;10.40;6.80;;;4.20;99.90;;;4.62;100.00;100243.06;5052206;28;20032;-76
2021/11/25 01:43:27;;;;;;;9.52;6.20;;;4.20;99.90;;;4.62;100.00;100243.84;5034737;28;20021;-77
2021/11/25 01:46:14;;;;;;;8.70;6.43;;;4.20;99.90;;;4.60;100.00;100239.78;5034548;28;20029;-78
2021/11/25 01:48:49;;;;;;;9.65;6.65;;;4.20;99.90;;;4.51;100.00;100231.50;5035357;28;20032;-77
2021/11/25 01:51:19;;;;;;;11.40;6.67;;;4.10;99.90;;;4.53;100.00;100228.41;5052896;28;20033;-78
2021/11/25 01:53:49;;;;;;;9.65;6.55;;;4.10;99.90;;;4.53;100.00;100240.28;5035288;28;20201;-78
2021/11/25 01:56:22;;;;;;;9.02;5.72;;;4.10;99.90;;;4.57;100.00;100237.69;5048604;23;20033;-78
2021/11/25 01:58:50;;;;;;;10.60;7.38;;;4.10;99.90;;;4.54;100.00;100224.50;5030639;28;20105;-78
2021/11/25 02:01:20;;;;;;;12.50;6.53;;;4.10;99.90;;;4.54;100.00;100227.28;5033408;28;20552;-78
2021/11/25 02:03:50;;;;;;;12.95;6.95;;;4.10;99.90;;;4.55;100.00;100224.19;5031495;28;20434;-78
2021/11/25 02:06:17;;;;;;;10.70;6.78;;;4.20;99.90;;;4.57;100.00;100221.09;5015580;28;20040;-79
2021/11/25 02:08:44;;;;;;;11.00;6.90;;;4.10;99.90;;;4.58;100.00;100223.53;5032913;28;20503;-78
2021/11/25 02:11:11;;;;;;;8.95;6.35;;;4.10;99.90;;;4.61;100.00;100233.94;5033569;28;20029;-78
2021/11/25 02:13:37;;;;;;;10.93;6.40;;;4.20;99.90;;;4.62;100.00;100227.25;5018728;28;20489;-78
2021/11/25 02:16:06;;;;;;;7.68;6.22;;;4.20;99.90;;;4.61;100.00;100217.34;5019458;28;20029;-76
2021/11/25 02:18:32;;;;;;;9.73;6.65;;;4.20;99.90;;;4.63;100.00;100214.22;5036248;28;20034;-79
2021/11/25 02:21:03;;;;;;;10.43;6.53;;;4.20;99.90;;;4.66;100.00;100203.31;5018656;28;20024;-78
2021/11/25 02:23:32;;;;;;;8.68;7.13;;;4.20;99.90;;;4.69;100.00;100197.13;5036132;28;20448;-77
2021/11/25 02:26:00;;;;;;;10.98;6.50;;;4.20;99.90;;;4.68;100.00;100191.94;5036276;28;20030;-76
2021/11/25 02:28:38;;;;;;;15.90;7.45;;;4.30;99.90;;;4.63;100.00;100194.88;5018584;28;20504;-77
2021/11/25 02:31:08;;;;;;;13.25;7.60;;;4.20;99.90;;;4.63;100.00;100197.63;5036367;28;20029;-76
2021/11/25 02:33:39;;;;;;;9.13;6.60;;;4.20;99.90;;;4.66;100.00;100195.03;5018847;28;20108;-77
2021/11/25 02:36:07;;;;;;;10.10;6.68;;;4.20;99.90;;;4.67;100.00;100193.91;5034496;28;20037;-77
2021/11/25 02:38:33;;;;;;;10.20;7.35;;;4.20;99.90;;;4.64;100.00;100191.78;5018148;28;20111;-78
2021/11/25 02:41:00;;;;;;;11.60;7.90;;;4.20;99.90;;;4.61;100.00;100192.44;5035781;28;20029;-76
2021/11/25 02:43:33;;;;;;;9.18;7.30;;;4.20;99.90;;;4.60;100.00;100198.31;5018106;28;20022;-78
2021/11/25 02:46:09;;;;;;;10.40;7.32;;;4.20;99.90;;;4.60;100.00;100204.66;5035990;28;20029;-76
2021/11/25 02:48:46;;;;;;;9.85;7.38;;;4.20;99.90;;;4.60;100.00;100199.13;5017995;28;20143;-77
2021/11/25 02:51:36;;;;;;;11.80;7.75;;;4.20;99.90;;;4.62;100.00;100198.81;5036640;28;20475;-79
2021/11/25 02:54:03;;;;;;;11.68;7.95;;;4.20;99.90;;;4.62;100.00;100188.53;5039362;28;20415;-78
2021/11/25 02:56:31;;;;;;;11.73;7.38;;;4.20;99.90;;;4.67;100.00;100198.59;5020444;28;20048;-76
2021/11/25 02:59:00;;;;;;;10.95;6.93;;;4.20;99.90;;;4.67;100.00;100193.91;5037334;28;20101;-77
2021/11/25 03:01:37;;;;;;;9.90;7.32;;;4.20;99.90;;;4.64;100.00;100193.75;5037797;28;20025;-77
2021/11/25 03:04:06;;;;;;;10.30;7.60;;;4.20;99.90;;;4.63;100.00;100197.63;5019303;28;20036;-77
2021/11/25 03:06:35;;;;;;;10.20;7.35;;;4.20;99.90;;;4.63;100.00;100190.16;5036460;28;20501;-77
2021/11/25 03:09:03;;;;;;;10.80;7.13;;;4.20;99.90;;;4.64;100.00;100190.97;5018749;28;20029;-79
2021/11/25 03:11:31;;;;;;;11.63;7.18;;;4.20;99.90;;;4.65;100.00;100193.44;5036792;28;20029;-77
2021/11/25 03:14:07;;;;;;;13.38;7.78;;;4.20;99.90;;;4.62;100.00;100188.53;5036403;28;20416;-79
2021/11/25 03:16:34;;;;;;;14.10;6.95;;;4.20;99.90;;;4.59;100.00;100174.56;5036113;28;20056;-78
2021/11/25 03:19:01;;;;;;;10.52;7.22;;;4.20;99.90;;;4.57;100.00;100169.34;5035781;28;20078;-75
2021/11/25 03:21:29;;;;;;;9.93;7.38;;;4.20;99.90;;;4.60;100.00;100160.41;5026673;28;20037;-80
2021/11/25 03:23:56;;;;;;;8.27;6.95;;;4.20;99.90;;;4.63;100.00;100173.56;5017299;28;20465;-79
2021/11/25 03:26:26;;;;;;;11.07;7.60;;;4.20;99.90;;;4.65;100.00;100171.28;5019771;28;20034;-81
2021/11/25 03:28:54;;;;;;;10.18;7.70;;;4.20;99.90;;;4.61;100.00;100175.84;5000256;28;20044;-81
2021/11/25 03:31:25;;;;;;;10.05;7.07;;;4.20;99.90;;;4.64;100.00;100180.72;4999374;28;20033;-83
2021/11/25 03:33:55;;;;;;;12.07;7.30;;;4.20;99.90;;;4.59;100.00;100174.56;5017174;28;20030;-79
2021/11/25 03:36:22;;;;;;;10.88;7.25;;;4.20;99.90;;;4.61;100.00;100175.84;5016396;28;20041;-77
2021/11/25 03:38:49;;;;;;;10.80;7.30;;;4.20;99.90;;;4.58;100.00;100171.00;4998158;28;20061;-76
2021/11/25 03:41:19;;;;;;;12.10;7.25;;;4.20;99.90;;;4.60;100.00;100165.94;5016042;28;20363;-76
2021/11/25 03:43:46;;;;;;;11.27;7.50;;;4.20;99.90;;;4.63;100.00;100169.97;4998261;28;20037;-77
2021/11/25 03:46:15;;;;;;;11.25;7.90;;;4.20;99.90;;;4.61;100.00;100173.09;5014405;28;20080;-79
2021/11/25 03:48:41;;;;;;;10.90;6.82;;;4.20;99.90;;;4.63;100.00;100172.75;5014894;28;20034;-76
2021/11/25 03:51:12;;;;;;;10.30;7.07;;;4.20;99.90;;;4.66;100.00;100174.84;4997503;28;20026;-79
2021/11/25 03:53:46;;;;;;;9.43;6.75;;;4.20;99.90;;;4.64;100.00;100161.38;5014891;28;20026;-76
2021/11/25 03:56:13;;;;;;;12.23;7.18;;;4.20;99.90;;;4.63;100.00;100165.25;5014492;28;20414;-76
2021/11/25 03:58:39;;;;;;;10.05;7.50;;;4.20;99.90;;;4.63;100.00;100151.44;5014258;28;20056;-78
2021/11/25 04:01:05;;;;;;;10.30;7.90;;;4.20;99.90;;;4.61;100.00;100145.44;4997647;28;20080;-76
2021/11/25 04:03:32;;;;;;;11.70;6.97;;;4.20;99.90;;;4.62;100.00;100147.03;5014512;28;20393;-79
2021/11/25 04:05:58;;;;;;;10.85;7.28;;;4.20;99.90;;;4.62;100.00;100141.50;4997001;28;20409;-77
2021/11/25 04:08:27;;;;;;;12.30;7.43;;;4.20;99.90;;;4.65;100.00;100138.09;5013319;28;20025;-78
2021/11/25 04:10:57;;;;;;;8.95;6.90;;;4.20;99.90;;;4.66;100.00;100136.94;5015121;28;20040;-77
2021/11/25 04:13:26;;;;;;;13.35;7.72;;;4.20;99.90;;;4.66;100.00;100130.59;5014529;28;20040;-78
2021/11/25 04:15:52;;;;;;;10.90;6.80;;;4.20;99.90;;;4.58;99.65;100123.16;5014380;28;20213;-76
2021/11/25 04:18:18;;;;;;;10.57;6.70;;;4.20;99.90;;;4.61;98.75;100128.03;4998407;28;20022;-78
2021/11/25 04:20:44;;;;;;;9.40;6.97;;;4.20;99.90;;;4.58;97.63;100123.97;4999906;28;20045;-79
2021/11/25 04:23:10;;;;;;;9.35;6.88;;;4.20;99.90;;;4.63;97.93;100125.72;5034348;28;20044;-78
2021/11/25 04:25:36;;;;;;;9.05;6.85;;;4.30;99.90;;;4.63;97.36;100126.53;5016948;28;20124;-79
2021/11/25 04:28:04;;;;;;;11.73;7.50;;;4.30;99.90;;;4.67;97.64;100127.50;5017042;28;20124;-79
2021/11/25 04:36:13;;;;;;;11.52;7.80;;;4.30;99.90;;;4.73;98.18;100126.19;5035003;28;20103;-79
2021/11/25 04:38:42;;;;;;;14.00;7.75;;;4.30;99.90;;;4.68;97.69;100131.09;5032359;28;20030;-78
2021/11/25 04:41:08;;;;;;;12.02;7.60;;;4.30;99.90;;;4.67;98.12;100127.50;5034819;28;20035;-80
2021/11/25 04:43:34;;;;;;;13.90;8.15;;;4.30;99.90;;;4.65;98.45;100126.22;5017211;28;20395;-81
2021/11/25 04:46:00;;;;;;;12.77;8.02;;;4.20;99.90;;;4.58;98.72;100121.19;5035694;28;20033;-81
2021/11/25 04:48:28;;;;;;;12.05;8.48;;;4.20;99.90;;;4.51;99.30;100125.59;5035733;28;20029;-81
2021/11/25 04:50:55;;;;;;;14.60;9.05;;;4.20;99.90;;;4.57;99.54;100124.28;5019037;28;20033;-81
2021/11/25 04:53:23;;;;;;;11.63;7.82;;;4.10;99.90;;;4.55;99.72;100119.09;5035870;28;20102;-81
2021/11/25 04:55:55;;;;;;;13.18;7.95;;;4.10;99.90;;;4.47;100.00;100102.50;5019514;28;20503;-78
2021/11/25 04:58:24;;;;;;;15.07;8.07;;;4.10;99.90;;;4.44;100.00;100109.53;5037973;28;20496;-79
2021/11/25 05:00:53;;;;;;;15.13;8.73;;;4.10;99.90;;;4.41;100.00;100107.41;5041206;28;20022;-80
2021/11/25 05:03:19;;;;;;;12.00;8.02;;;4.00;99.90;;;4.40;100.00;100103.03;5044654;28;20030;-78
2021/11/25 05:05:46;;;;;;;14.63;8.38;;;4.00;99.90;;;4.33;100.00;100093.63;5047345;28;20048;-78
2021/11/25 05:08:11;;;;;;;11.77;8.27;;;4.00;99.90;;;4.32;100.00;100092.81;5040595;28;20224;-79
2021/11/25 05:10:39;;;;;;;11.32;7.78;;;4.00;99.90;;;4.25;100.00;100085.03;5028300;28;20060;-79
2021/11/25 05:13:05;;;;;;;10.15;7.70;;;3.90;99.90;;;4.17;100.00;100090.59;5020902;28;20025;-80
2021/11/25 05:15:31;;;;;;;10.35;8.35;;;3.80;99.90;;;4.04;100.00;100086.88;5034411;28;20052;-79
2021/11/25 05:18:00;;;;;;;11.30;7.45;;;3.70;99.90;;;3.92;100.00;100089.50;5033704;28;20489;-79
2021/11/25 05:20:27;;;;;;;13.07;8.10;;;3.60;99.90;;;3.76;100.00;100084.81;5014032;28;20027;-79
2021/11/25 05:22:53;;;;;;;13.38;8.15;;;3.50;99.90;;;3.66;100.00;100086.75;4996610;28;20038;-80
2021/11/25 05:25:19;;;;;;;12.10;8.57;;;3.40;99.90;;;3.58;100.00;100081.25;4996782;28;20424;-78
2021/11/25 05:27:52;;;;;;;14.63;8.75;;;3.30;99.90;;;3.48;100.00;100084.31;5000155;28;20034;-81
2021/11/25 05:30:20;;;;;;;14.93;9.60;;;3.20;99.90;;;3.36;100.00;100084.16;5018904;28;20034;-79
2021/11/25 05:32:48;;;;;;;12.55;8.18;;;3.00;99.90;;;3.26;100.00;100088.06;4999805;28;20043;-81
2021/11/25 05:35:16;;;;;;;12.05;8.85;;;3.00;99.90;;;3.15;100.00;100081.22;5014955;28;20042;-78
2021/11/25 05:37:44;;;;;;;14.48;8.82;;;2.90;99.90;;;3.08;100.00;100073.41;5014271;28;20049;-77
2021/11/25 05:40:14;;;;;;;17.45;9.93;;;2.90;99.90;;;3.08;100.00;100076.16;5013716;28;20026;-78
2021/11/25 05:42:43;;;;;;;14.13;9.50;;;2.80;99.90;;;3.13;100.00;100086.25;4996717;28;20037;-77
2021/11/25 05:45:13;;;;;;;15.77;9.65;;;2.80;99.90;;;3.13;100.00;100089.00;5015178;28;20052;-79
2021/11/25 05:47:41;;;;;;;12.88;9.15;;;2.80;99.90;;;3.13;100.00;100098.09;5000263;28;20022;-76
2021/11/25 05:50:20;;;;;;;11.38;8.75;;;2.80;99.90;;;3.05;100.00;100098.09;5018072;28;20033;-78
2021/11/25 05:52:50;;;;;;;15.13;8.52;;;2.70;99.90;;;2.95;100.00;100092.88;5016873;28;20030;-78
2021/11/25 05:55:16;;;;;;;14.82;8.52;;;2.60;99.90;;;2.82;100.00;100088.28;5016711;28;20034;-79
2021/11/25 05:57:45;;;;;;;18.70;9.27;;;2.50;99.90;;;2.70;100.00;100090.88;4998631;28;20045;-79
2021/11/25 06:00:15;;;;;;;14.13;9.30;;;2.40;99.90;;;2.56;100.00;100090.97;5016259;28;20135;-78
2021/11/25 06:02:48;;;;;;;11.70;8.10;;;2.30;99.90;;;2.45;100.00;100087.66;5015838;28;20034;-80
2021/11/25 06:05:20;;;;;;;12.68;9.20;;;2.20;99.90;;;2.41;100.00;100077.63;5000449;28;20037;-79
2021/11/25 06:07:51;;;;;;;13.55;8.95;;;2.10;99.90;;;2.37;100.00;100077.44;4998797;28;20080;-78
2021/11/25 06:10:23;;;;;;;19.25;9.90;;;2.00;99.90;;;2.27;100.00;100065.88;5017158;28;20101;-76
2021/11/25 06:12:51;;;;;;;16.33;8.35;;;1.90;99.90;;;2.08;100.00;100061.41;5016905;28;20054;-77
2021/11/25 06:15:19;;;;;;;20.55;10.02;;;1.80;99.90;;;1.96;100.00;100066.66;5017462;28;20029;-77
2021/11/25 06:17:50;;;;;;;16.85;10.80;;;1.70;99.90;;;1.87;100.00;100068.56;4999016;28;20445;-76
2021/11/25 06:20:21;;;;;;;18.45;11.25;;;1.70;99.90;;;1.95;100.00;100067.81;4999195;28;20423;-78
2021/11/25 06:22:52;;;;;;;16.63;10.82;;;1.70;99.90;;;2.05;100.00;100066.75;5036524;28;20026;-79
2021/11/25 06:25:21;;;;;;;18.75;11.95;;;1.80;99.90;;;2.11;100.00;100069.03;5019683;28;20044;-77
2021/11/25 06:27:48;;;;;;;17.40;12.35;;;1.80;99.90;;;2.18;100.00;100068.59;5029748;28;20040;-80
2021/11/25 06:30:16;;;;;;;16.90;11.30;;;1.80;99.90;;;2.19;100.00;100053.66;5026799;28;20472;-79
2021/11/25 06:32:46;;;;;;;13.40;9.73;;;1.90;99.90;;;2.11;100.00;100048.94;5020630;28;20439;-78
2021/11/25 06:35:18;;;;;;;15.38;10.45;;;1.80;99.90;;;1.98;100.00;100047.91;5037632;28;20033;-79
2021/11/25 06:37:49;;;;;;;19.35;11.75;;;1.70;99.90;;;1.92;100.00;100048.34;5036962;28;20029;-81
2021/11/25 06:40:27;;;;;;;21.17;12.52;;;1.60;99.90;;;1.90;100.00;100042.34;5019711;28;20112;-78
2021/11/25 06:42:59;;;;;;;16.40;10.70;;;1.60;99.90;;;1.86;100.00;100052.38;5020161;28;20072;-77
2021/11/25 06:45:28;;;;;;;14.32;10.30;;;1.60;99.90;;;1.75;100.00;100048.25;5021145;28;20171;-77
2021/11/25 06:47:55;;;;;;;18.25;11.30;;;1.50;99.90;;;1.72;100.00;100055.19;5036424;28;20033;-81
2021/11/25 06:50:25;;;;;;;22.73;13.43;;;1.40;99.90;;;1.70;100.00;100054.69;5037833;28;20044;-81
2021/11/25 06:52:58;;;;;;;18.83;12.35;;;1.40;99.90;;;1.65;100.00;100054.00;5019071;28;20029;-79
2021/11/25 06:55:25;;;;;;;26.20;14.80;;;1.40;99.90;;;1.70;100.00;100042.88;5039182;28;20036;-79
2021/11/25 06:57:54;;;;;;;25.30;14.68;;;1.50;99.90;;;1.75;100.00;100037.22;5039403;28;20045;-80
2021/11/25 07:00:26;;;;;;;27.88;15.85;;;1.50;99.90;;;1.83;100.00;100031.75;5035629;28;20041;-80
2021/11/25 07:02:53;;;;;;;24.33;15.35;;;1.60;99.90;;;1.98;100.00;100033.31;5020789;28;20071;-82
2021/11/25 07:05:22;;;;;;;26.33;14.85;;;1.80;99.90;;;2.04;100.00;100043.88;5035279;28;20025;-80
2021/11/25 07:07:49;;;;;;;24.52;14.35;;;1.80;99.90;;;2.07;100.00;100057.03;5049043;28;20033;-83
2021/11/25 07:10:20;;;;;;;16.63;11.55;;;1.80;99.90;;;2.05;100.00;100064.81;5039358;28;20022;-80
2021/11/25 07:12:47;;;;;;;21.55;11.43;;;1.60;99.90;;;1.91;100.00;100085.28;5028977;28;20105;-85
2021/11/25 07:15:18;;;;;;;25.15;13.90;;;1.50;99.90;;;1.79;100.00;100082.28;5048910;28;20037;-79
2021/11/25 07:17:46;;;;;;;22.10;13.20;;;1.40;99.90;;;1.76;100.00;100085.66;5027213;28;20033;-83
2021/11/25 07:20:16;;;;;;;23.67;13.45;;;1.50;99.90;;;1.79;100.00;100094.13;5021499;28;20025;-80
2021/11/25 07:22:42;;;;;;;20.73;13.23;;;1.40;99.90;;;1.85;100.00;100101.13;5000682;28;20397;-80
2021/11/25 07:25:13;;;;;;;25.92;15.15;;;1.50;99.90;;;1.95;100.00;100108.31;4999243;28;20080;-78
2021/11/25 07:27:42;;;;;;;26.60;15.05;;;1.50;99.90;;;2.05;100.00;100105.31;4998849;28;20029;-79
2021/11/25 07:30:15;;;;;;;24.02;14.57;;;1.60;99.90;;;2.10;100.00;100103.22;4999101;28;20044;-79
2021/11/25 07:32:41;;;;;;;26.00;15.95;;;1.70;99.90;;;2.15;100.00;100105.03;5016568;28;20113;-81
2021/11/25 07:35:10;;;;;;;25.20;14.32;;;1.70;99.90;;;2.24;100.00;100105.91;4997901;28;20133;-78
2021/11/25 07:37:36;;;;;;;25.48;14.80;;;1.80;99.90;;;2.34;100.00;100111.13;5016283;28;20040;-79
2021/11/25 07:40:06;;;;;;;23.80;14.13;;;1.90;99.90;;;2.43;100.00;100100.97;5016348;28;20030;-79
2021/11/25 07:42:36;;;;;;;21.38;13.00;;;2.00;99.90;;;2.48;100.00;100106.31;5015211;28;20124;-79
2021/11/25 07:45:18;;;;;;;24.48;14.35;;;2.00;99.90;;;2.43;100.00;100102.91;5018896;28;20044;-80
2021/11/25 07:47:48;;;;;;;23.08;13.15;;;2.00;99.90;;;2.38;100.00;100098.34;5016298;28;20030;-81
2021/11/25 07:50:21;;;;;;;25.38;13.45;;;2.00;99.90;;;2.39;100.00;100102.72;5016130;28;20037;-79
2021/11/25 07:52:49;;;;;;;22.83;13.73;;;2.00;99.90;;;2.51;100.00;100100.19;5016510;28;20028;-79
2021/11/25 07:55:17;;;;;;;26.13;14.68;;;2.10;99.90;;;2.65;100.00;100097.31;5005257;28;20026;-80
2021/11/25 07:57:44;;;;;;;25.02;14.90;;;2.20;99.90;;;2.82;100.00;100099.31;5002007;23;1253958;-77
2021/11/25 08:00:14;;;;;;;24.70;14.43;;;2.30;99.90;;;2.93;100.00;100097.88;5054347;28;20318;-77
2021/11/25 08:02:42;;;;;;;32.85;16.55;;;2.50;99.90;;;2.94;100.00;100103.09;5054686;28;20036;-77
2021/11/25 08:05:10;;;;;;;28.73;15.50;;;2.50;99.90;;;3.00;100.00;100101.00;5052830;28;20408;-77
2021/11/25 08:07:42;;;;;;;24.15;14.07;;;2.50;99.90;;;2.89;100.00;100102.44;5053875;28;20074;-76
2021/11/25 08:10:13;;;;;;;27.00;13.32;;;2.50;99.90;;;2.85;100.00;100098.69;5053124;28;20078;-77
2021/11/25 08:12:42;;;;;;;29.23;15.80;;;2.40;99.90;;;2.97;100.00;100104.38;5054272;28;20036;-78
2021/11/25 08:15:10;;;;;;;28.30;15.68;;;2.50;99.90;;;3.16;100.00;100102.97;5053739;28;20061;-76
2021/11/25 08:17:36;;;;;;;26.38;16.10;;;2.70;99.90;;;3.37;100.00;100108.66;5053024;28;20036;-77
2021/11/25 08:20:12;;;;;;;29.02;16.30;;;2.80;99.90;;;3.47;100.00;100108.34;5053357;28;20021;-77
2021/11/25 08:22:40;;;;;;;22.73;16.13;;;3.00;99.90;;;3.69;100.00;100096.34;5051778;28;20025;-77
2021/11/25 08:25:09;;;;;;;27.88;16.13;;;3.20;99.90;;;3.95;100.00;100102.66;5053301;28;20478;-77
2021/11/25 08:27:37;;;;;;;23.58;15.43;;;3.40;99.90;;;4.17;100.00;100096.13;5053081;28;20431;-77
2021/11/25 08:30:11;;;;;;;24.90;15.57;;;3.60;99.90;;;4.36;100.00;100098.50;5053448;28;20033;-77
2021/11/25 08:32:37;;;;;;;22.30;14.35;;;3.70;99.90;;;4.60;100.00;100099.53;5035354;28;20071;-76
2021/11/25 08:35:05;;;;;;;31.10;15.98;;;3.90;99.90;;;4.53;100.00;100102.00;5035417;28;20029;-76
2021/11/25 08:37:35;;;;;;;21.73;15.43;;;4.10;99.90;;;4.71;100.00;100092.50;5054332;28;20044;-77
2021/11/25 08:40:01;;;;;;;25.27;15.85;;;4.20;99.90;;;5.00;99.85;100088.13;5036815;28;20469;-77
2021/11/25 08:42:27;;;;;;;31.17;15.45;;;4.40;99.90;;;5.13;99.66;100087.06;5054150;28;20029;-75
2021/11/25 08:44:53;;;;;;;23.35;15.10;;;4.50;99.90;;;5.46;98.54;100087.16;5053621;28;20426;-76
2021/11/25 08:47:23;;;;;;;20.30;14.10;;;4.80;99.90;;;5.75;97.56;100074.03;5053418;28;20036;-76
2021/11/25 08:49:51;;;;;;;27.25;16.45;;;5.00;99.90;;;5.74;94.71;100072.44;5056970;28;20032;-76
2021/11/25 08:52:20;;;;;;;25.67;15.27;;;5.10;99.90;;;5.94;95.02;100062.47;5055514;28;20039;-76
2021/11/25 08:54:46;;;;;;;24.15;15.38;;;5.30;99.90;;;6.06;93.40;100058.94;5053802;28;20033;-76
2021/11/25 08:57:12;;;;;;;20.85;14.65;;;5.30;99.90;;;6.04;93.04;100066.75;5053398;28;20090;-77
2021/11/25 08:59:38;;;;;;;23.73;15.75;;;5.30;99.90;;;6.01;92.15;100073.81;5052890;28;20021;-76
2021/11/25 09:02:04;;;;;;;26.83;17.15;;;5.40;99.90;;;6.02;92.37;100060.75;5053115;28;20556;-77
2021/11/25 09:04:30;;;;;;;29.73;17.42;;;5.40;99.90;;;5.65;93.38;100065.34;5052921;28;20060;-77
2021/11/25 09:06:58;;;;;;;29.23;17.05;;;5.20;99.90;;;5.79;93.09;100072.19;5052599;28;20029;-77
2021/11/25 09:09:24;;;;;;;24.35;15.50;;;5.20;99.90;;;6.00;93.84;100068.63;5053116;28;20029;-78
2021/11/25 09:11:50;;;;;;;25.40;17.50;;;5.30;99.90;;;6.01;91.82;100065.50;5052411;28;20061;-76
2021/11/25 09:14:16;;;;;;;25.35;17.48;;;5.40;99.90;;;6.43;92.25;100062.59;5034960;28;20040;-77
2021/11/25 09:16:43;;;;;;;29.08;16.05;;;5.60;99.90;;;6.79;88.99;100059.84;5051438;28;20029;-77
2021/11/25 09:19:12;;;;;;;25.10;16.05;;;5.90;99.90;;;7.08;88.08;100065.16;5034866;28;20028;-77
2021/11/25 09:21:38;;;;;;;23.33;15.55;;;6.20;99.90;;;7.25;87.51;100073.25;5041956;28;20420;-77
2021/11/25 09:24:08;;;;;;;22.73;15.65;;;6.30;99.90;;;7.52;86.61;100076.41;5032745;28;20059;-77
2021/11/25 09:26:37;;;;;;;26.88;16.17;;;6.60;99.90;;;7.95;85.03;100065.38;5032690;28;20108;-77
2021/11/25 09:29:07;;;;;;;23.13;15.30;;;6.90;99.90;;;8.25;81.63;100060.22;5032998;28;20025;-77
2021/11/25 09:31:40;;;;;;;23.23;14.40;;;7.20;99.90;;;8.55;79.80;100060.63;5015638;28;20040;-76
2021/11/25 09:34:07;;;;;;;21.23;13.98;;;7.50;99.90;;;8.35;78.53;100059.72;5033454;28;20026;-76
2021/11/25 09:36:35;;;;;;;22.02;14.60;;;7.40;99.90;;;7.82;79.83;100056.28;5032666;28;20021;-76
2021/11/25 09:39:08;;;;;;;21.17;13.90;;;7.00;99.90;;;7.41;81.63;100056.66;5032982;28;20424;-75
2021/11/25 09:41:34;;;;;;;19.60;13.95;;;6.70;99.90;;;7.06;82.89;100066.66;5032852;28;20025;-76
2021/11/25 09:44:00;;;;;;;19.90;14.63;;;6.40;99.90;;;6.80;83.14;100069.78;5033140;28;20428;-76
2021/11/25 09:46:27;;;;;;;22.85;14.85;;;6.20;99.90;;;6.61;85.07;100072.34;5032781;28;20354;-76
2021/11/25 09:48:58;;;;;;;20.02;13.95;;;6.00;99.90;;;6.44;85.82;100080.84;5032640;28;20087;-77
2021/11/25 09:51:25;;;;;;;19.80;13.30;;;5.80;99.90;;;6.24;85.58;100077.00;5033046;28;20064;-76
2021/11/25 09:53:54;;;;;;;20.52;13.75;;;5.60;99.90;;;6.22;86.35;100073.78;5033018;28;20041;-76
2021/11/25 09:56:22;;;;;;;16.10;12.20;;;5.60;99.90;;;6.12;87.75;100085.28;5032934;28;20417;-77
2021/11/25 09:58:50;;;;;;;20.83;14.25;;;5.50;99.90;;;6.05;88.18;100085.84;5033283;28;20030;-77
2021/11/25 10:01:24;;;;;;;19.13;13.85;;;5.40;99.90;;;6.07;87.93;100096.59;5033697;28;20026;-78
2021/11/25 10:03:54;;;;;;;25.85;16.67;;;5.40;99.90;;;6.02;88.05;100094.03;5034177;28;20038;-77
2021/11/25 10:06:33;;;;;;;25.40;14.95;;;5.30;99.90;;;5.88;88.47;100087.97;5015112;28;20036;-76
2021/11/25 10:09:01;;;;;;;20.65;14.77;;;5.30;99.90;;;5.73;89.56;100081.88;5033315;28;20439;-76
2021/11/25 10:11:39;;;;;;;21.73;15.15;;;5.10;99.90;;;5.56;89.58;100078.44;5032779;28;20059;-76
2021/11/25 10:14:12;;;;;;;23.20;14.45;;;5.10;99.90;;;5.42;89.66;100091.75;5033587;28;20100;-77
2021/11/25 10:16:57;;;;;;;21.00;13.75;;;5.00;99.90;;;5.41;89.56;100096.47;5033890;28;20455;-77
2021/11/25 10:19:27;;;;;;;18.80;13.57;;;4.90;99.90;;;5.42;90.43;100092.56;5032759;28;20021;-76
2021/11/25 10:21:58;;;;;;;23.65;15.50;;;4.90;99.90;;;5.27;90.23;100091.19;5045092;28;20037;-77
2021/11/25 10:24:45;;;;;;;20.30;14.30;;;4.80;99.90;;;5.31;91.23;100096.88;5034798;28;20057;-76
2021/11/25 10:27:27;;;;;;;23.23;14.38;;;4.80;99.90;;;5.33;90.85;100080.72;5052695;28;20116;-77